sensor_id;sensor_type;location;lat;lon;timestamp;P1;durP1;ratioP1;P2;durP2;ratioP2
14734;SDS011;7458;49.002;8.472;2023-02-08T00:02:02;18.05;;;12.70;;
14734;SDS011;7458;49.002;8.472;2023-02-08T00:04:28;16.60;;;14.93;;
14734;SDS011;7458;49.002;8.472;2023-02-08T00:06:53;22.70;;;16.27;;
14734;SDS011;7458;49.002;8.472;2023-02-08T00:09:19;23.95;;;14.75;;
14734;SDS011;7458;49.002;8.472;2023-02-08T00:11:45;23.77;;;18.73;;
14734;SDS011;7458;49.002;8.472;2023-02-08T00:14:10;19.40;;;12.95;;
14734;SDS011;7458;49.002;8.472;2023-02-08T00:16:36;19.08;;;15.10;;
14734;SDS011;7458;49.002;8.472;2023-02-08T00:19:02;17.42;;;13.18;;
14734;SDS011;7458;49.002;8.472;2023-02-08T00:21:28;17.17;;;14.45;;
14734;SDS011;7458;49.002;8.472;2023-02-08T00:23:53;17.15;;;15.38;;
14734;SDS011;7458;49.002;8.472;2023-02-08T00:26:19;24.25;;;14.57;;
14734;SDS011;7458;49.002;8.472;2023-02-08T00:28:45;18.80;;;12.60;;
14734;SDS011;7458;49.002;8.472;2023-02-08T00:31:10;24.88;;;13.95;;
14734;SDS011;7458;49.002;8.472;2023-02-08T00:33:36;17.92;;;14.73;;
14734;SDS011;7458;49.002;8.472;2023-02-08T00:36:03;18.95;;;14.18;;
14734;SDS011;7458;49.002;8.472;2023-02-08T00:38:33;21.85;;;15.55;;
14734;SDS011;7458;49.002;8.472;2023-02-08T00:40:59;19.67;;;16.23;;
14734;SDS011;7458;49.002;8.472;2023-02-08T00:43:25;22.08;;;15.70;;
14734;SDS011;7458;49.002;8.472;2023-02-08T00:45:57;20.38;;;15.07;;
14734;SDS011;7458;49.002;8.472;2023-02-08T00:48:25;21.52;;;15.07;;
14734;SDS011;7458;49.002;8.472;2023-02-08T00:51:12;26.27;;;16.88;;
14734;SDS011;7458;49.002;8.472;2023-02-08T00:53:39;22.73;;;14.52;;
14734;SDS011;7458;49.002;8.472;2023-02-08T00:56:08;19.80;;;13.77;;
14734;SDS011;7458;49.002;8.472;2023-02-08T00:58:36;18.90;;;14.07;;
14734;SDS011;7458;49.002;8.472;2023-02-08T01:01:03;20.00;;;14.38;;
14734;SDS011;7458;49.002;8.472;2023-02-08T01:03:32;17.88;;;13.65;;
14734;SDS011;7458;49.002;8.472;2023-02-08T01:06:00;19.45;;;14.15;;
14734;SDS011;7458;49.002;8.472;2023-02-08T01:08:28;18.50;;;15.20;;
14734;SDS011;7458;49.002;8.472;2023-02-08T01:11:13;24.02;;;15.82;;
14734;SDS011;7458;49.002;8.472;2023-02-08T01:13:42;19.45;;;14.32;;
14734;SDS011;7458;49.002;8.472;2023-02-08T01:18:36;17.17;;;14.95;;
14734;SDS011;7458;49.002;8.472;2023-02-08T01:21:04;23.13;;;13.43;;
14734;SDS011;7458;49.002;8.472;2023-02-08T01:23:37;19.75;;;14.85;;
14734;SDS011;7458;49.002;8.472;2023-02-08T01:26:04;18.67;;;14.13;;
14734;SDS011;7458;49.002;8.472;2023-02-08T01:28:31;17.60;;;14.40;;
14734;SDS011;7458;49.002;8.472;2023-02-08T01:30:58;18.77;;;15.18;;
14734;SDS011;7458;49.002;8.472;2023-02-08T01:33:23;20.17;;;13.40;;
14734;SDS011;7458;49.002;8.472;2023-02-08T01:35:52;20.40;;;14.70;;
14734;SDS011;7458;49.002;8.472;2023-02-08T01:38:20;23.13;;;16.25;;
14734;SDS011;7458;49.002;8.472;2023-02-08T01:40:46;24.75;;;12.95;;
14734;SDS011;7458;49.002;8.472;2023-02-08T01:43:19;19.67;;;15.63;;
14734;SDS011;7458;49.002;8.472;2023-02-08T01:45:49;17.63;;;13.73;;
14734;SDS011;7458;49.002;8.472;2023-02-08T01:48:18;21.77;;;13.65;;
14734;SDS011;7458;49.002;8.472;2023-02-08T01:51:02;22.00;;;13.63;;
14734;SDS011;7458;49.002;8.472;2023-02-08T01:53:37;20.92;;;12.90;;
14734;SDS011;7458;49.002;8.472;2023-02-08T01:56:07;21.27;;;15.32;;
14734;SDS011;7458;49.002;8.472;2023-02-08T01:58:45;19.00;;;16.08;;
14734;SDS011;7458;49.002;8.472;2023-02-08T02:01:16;19.88;;;14.68;;
14734;SDS011;7458;49.002;8.472;2023-02-08T02:03:42;20.33;;;15.77;;
14734;SDS011;7458;49.002;8.472;2023-02-08T02:06:12;19.33;;;16.10;;
14734;SDS011;7458;49.002;8.472;2023-02-08T02:08:50;21.38;;;14.88;;
14734;SDS011;7458;49.002;8.472;2023-02-08T02:11:48;18.73;;;12.48;;
14734;SDS011;7458;49.002;8.472;2023-02-08T02:14:17;18.25;;;16.33;;
14734;SDS011;7458;49.002;8.472;2023-02-08T02:16:43;24.85;;;15.88;;
14734;SDS011;7458;49.002;8.472;2023-02-08T02:19:12;26.38;;;16.92;;
14734;SDS011;7458;49.002;8.472;2023-02-08T02:22:12;17.52;;;14.82;;
14734;SDS011;7458;49.002;8.472;2023-02-08T02:36:49;23.55;;;17.98;;
14734;SDS011;7458;49.002;8.472;2023-02-08T02:39:48;21.40;;;15.15;;
14734;SDS011;7458;49.002;8.472;2023-02-08T02:45:51;20.20;;;15.35;;
14734;SDS011;7458;49.002;8.472;2023-02-08T02:48:58;20.80;;;15.25;;
14734;SDS011;7458;49.002;8.472;2023-02-08T02:54:27;22.65;;;14.43;;
14734;SDS011;7458;49.002;8.472;2023-02-08T02:57:03;25.98;;;15.38;;
14734;SDS011;7458;49.002;8.472;2023-02-08T02:59:36;18.95;;;14.50;;
14734;SDS011;7458;49.002;8.472;2023-02-08T03:02:04;21.40;;;17.63;;
14734;SDS011;7458;49.002;8.472;2023-02-08T03:19:14;20.25;;;13.30;;
14734;SDS011;7458;49.002;8.472;2023-02-08T03:22:01;21.15;;;16.27;;
14734;SDS011;7458;49.002;8.472;2023-02-08T03:27:58;18.48;;;14.40;;
14734;SDS011;7458;49.002;8.472;2023-02-08T03:33:24;25.30;;;15.93;;
14734;SDS011;7458;49.002;8.472;2023-02-08T03:36:14;24.15;;;18.35;;
14734;SDS011;7458;49.002;8.472;2023-02-08T03:38:57;23.33;;;15.23;;
14734;SDS011;7458;49.002;8.472;2023-02-08T03:41:29;22.02;;;16.15;;
14734;SDS011;7458;49.002;8.472;2023-02-08T03:44:02;20.88;;;15.70;;
14734;SDS011;7458;49.002;8.472;2023-02-08T03:47:32;25.23;;;16.70;;
14734;SDS011;7458;49.002;8.472;2023-02-08T03:49:39;20.00;;;15.75;;
14734;SDS011;7458;49.002;8.472;2023-02-08T03:52:08;19.50;;;15.38;;
14734;SDS011;7458;49.002;8.472;2023-02-08T03:54:36;18.40;;;15.88;;
14734;SDS011;7458;49.002;8.472;2023-02-08T03:57:18;18.70;;;14.45;;
14734;SDS011;7458;49.002;8.472;2023-02-08T03:59:49;16.50;;;14.48;;
14734;SDS011;7458;49.002;8.472;2023-02-08T04:02:23;23.92;;;16.30;;
14734;SDS011;7458;49.002;8.472;2023-02-08T04:04:54;25.48;;;17.63;;
14734;SDS011;7458;49.002;8.472;2023-02-08T04:07:22;23.50;;;15.80;;
14734;SDS011;7458;49.002;8.472;2023-02-08T04:09:48;19.80;;;15.73;;
14734;SDS011;7458;49.002;8.472;2023-02-08T04:12:14;22.00;;;19.48;;
14734;SDS011;7458;49.002;8.472;2023-02-08T04:14:40;16.63;;;14.02;;
14734;SDS011;7458;49.002;8.472;2023-02-08T04:17:06;20.95;;;17.73;;
14734;SDS011;7458;49.002;8.472;2023-02-08T04:19:31;21.65;;;15.50;;
14734;SDS011;7458;49.002;8.472;2023-02-08T04:21:57;24.45;;;16.40;;
14734;SDS011;7458;49.002;8.472;2023-02-08T04:24:23;24.73;;;14.18;;
14734;SDS011;7458;49.002;8.472;2023-02-08T04:26:49;19.17;;;14.20;;
14734;SDS011;7458;49.002;8.472;2023-02-08T04:29:15;20.50;;;13.98;;
14734;SDS011;7458;49.002;8.472;2023-02-08T04:31:40;20.00;;;14.23;;
14734;SDS011;7458;49.002;8.472;2023-02-08T04:34:06;24.38;;;17.98;;
14734;SDS011;7458;49.002;8.472;2023-02-08T04:36:32;22.23;;;16.25;;
14734;SDS011;7458;49.002;8.472;2023-02-08T04:38:57;16.92;;;13.50;;
14734;SDS011;7458;49.002;8.472;2023-02-08T04:41:23;19.02;;;15.05;;
14734;SDS011;7458;49.002;8.472;2023-02-08T04:43:49;25.38;;;15.68;;
14734;SDS011;7458;49.002;8.472;2023-02-08T04:46:14;29.08;;;18.20;;
14734;SDS011;7458;49.002;8.472;2023-02-08T04:48:40;19.63;;;15.27;;
14734;SDS011;7458;49.002;8.472;2023-02-08T04:51:06;26.33;;;16.05;;
14734;SDS011;7458;49.002;8.472;2023-02-08T04:53:32;20.13;;;14.30;;
14734;SDS011;7458;49.002;8.472;2023-02-08T04:55:58;23.50;;;14.93;;
14734;SDS011;7458;49.002;8.472;2023-02-08T04:58:24;26.27;;;18.65;;
14734;SDS011;7458;49.002;8.472;2023-02-08T05:00:50;27.75;;;15.68;;
14734;SDS011;7458;49.002;8.472;2023-02-08T05:03:16;22.13;;;14.93;;
14734;SDS011;7458;49.002;8.472;2023-02-08T05:05:42;23.65;;;16.55;;
14734;SDS011;7458;49.002;8.472;2023-02-08T05:08:08;31.48;;;17.30;;
14734;SDS011;7458;49.002;8.472;2023-02-08T05:10:34;28.23;;;18.02;;
14734;SDS011;7458;49.002;8.472;2023-02-08T05:12:59;27.33;;;16.08;;
14734;SDS011;7458;49.002;8.472;2023-02-08T05:15:25;16.73;;;14.32;;
14734;SDS011;7458;49.002;8.472;2023-02-08T05:17:51;23.50;;;16.23;;
14734;SDS011;7458;49.002;8.472;2023-02-08T05:20:17;23.20;;;14.73;;
14734;SDS011;7458;49.002;8.472;2023-02-08T05:22:43;26.50;;;19.92;;
14734;SDS011;7458;49.002;8.472;2023-02-08T05:25:09;18.67;;;14.95;;
14734;SDS011;7458;49.002;8.472;2023-02-08T05:27:35;32.92;;;14.80;;
14734;SDS011;7458;49.002;8.472;2023-02-08T05:30:01;18.02;;;14.45;;
14734;SDS011;7458;49.002;8.472;2023-02-08T05:32:29;21.40;;;16.17;;
14734;SDS011;7458;49.002;8.472;2023-02-08T05:34:54;22.75;;;18.08;;
14734;SDS011;7458;49.002;8.472;2023-02-08T05:37:20;24.83;;;17.30;;
14734;SDS011;7458;49.002;8.472;2023-02-08T05:39:46;20.52;;;14.77;;
14734;SDS011;7458;49.002;8.472;2023-02-08T05:42:11;19.52;;;15.43;;
14734;SDS011;7458;49.002;8.472;2023-02-08T05:44:37;19.27;;;15.32;;
14734;SDS011;7458;49.002;8.472;2023-02-08T05:47:03;26.98;;;15.57;;
14734;SDS011;7458;49.002;8.472;2023-02-08T05:49:29;21.92;;;16.40;;
14734;SDS011;7458;49.002;8.472;2023-02-08T05:51:54;21.50;;;16.65;;
14734;SDS011;7458;49.002;8.472;2023-02-08T05:54:20;20.70;;;16.15;;
14734;SDS011;7458;49.002;8.472;2023-02-08T05:56:46;22.73;;;16.52;;
14734;SDS011;7458;49.002;8.472;2023-02-08T05:59:12;25.02;;;17.27;;
14734;SDS011;7458;49.002;8.472;2023-02-08T06:01:37;25.88;;;16.73;;
14734;SDS011;7458;49.002;8.472;2023-02-08T06:04:03;26.48;;;17.48;;
14734;SDS011;7458;49.002;8.472;2023-02-08T06:06:29;24.25;;;17.52;;
14734;SDS011;7458;49.002;8.472;2023-02-08T06:08:55;20.77;;;15.98;;
14734;SDS011;7458;49.002;8.472;2023-02-08T06:11:21;21.73;;;15.48;;
14734;SDS011;7458;49.002;8.472;2023-02-08T06:13:46;27.75;;;17.27;;
14734;SDS011;7458;49.002;8.472;2023-02-08T06:16:13;25.73;;;17.92;;
14734;SDS011;7458;49.002;8.472;2023-02-08T06:18:39;22.23;;;16.52;;
14734;SDS011;7458;49.002;8.472;2023-02-08T06:21:05;22.83;;;18.23;;
14734;SDS011;7458;49.002;8.472;2023-02-08T06:23:31;26.95;;;17.73;;
14734;SDS011;7458;49.002;8.472;2023-02-08T06:25:57;23.73;;;16.02;;
14734;SDS011;7458;49.002;8.472;2023-02-08T06:28:23;22.58;;;17.42;;
14734;SDS011;7458;49.002;8.472;2023-02-08T06:30:49;28.70;;;18.75;;
14734;SDS011;7458;49.002;8.472;2023-02-08T06:33:17;23.33;;;18.13;;
14734;SDS011;7458;49.002;8.472;2023-02-08T06:35:44;26.02;;;18.65;;
14734;SDS011;7458;49.002;8.472;2023-02-08T06:38:11;24.33;;;18.63;;
14734;SDS011;7458;49.002;8.472;2023-02-08T06:40:38;24.98;;;18.63;;
14734;SDS011;7458;49.002;8.472;2023-02-08T06:43:04;27.75;;;20.15;;
14734;SDS011;7458;49.002;8.472;2023-02-08T06:45:30;24.48;;;16.55;;
14734;SDS011;7458;49.002;8.472;2023-02-08T06:47:56;19.63;;;15.63;;
14734;SDS011;7458;49.002;8.472;2023-02-08T06:50:21;30.88;;;20.95;;
14734;SDS011;7458;49.002;8.472;2023-02-08T06:52:47;25.15;;;19.85;;
14734;SDS011;7458;49.002;8.472;2023-02-08T06:55:13;21.98;;;17.80;;
14734;SDS011;7458;49.002;8.472;2023-02-08T06:57:40;24.63;;;15.98;;
14734;SDS011;7458;49.002;8.472;2023-02-08T07:00:06;25.83;;;19.10;;
14734;SDS011;7458;49.002;8.472;2023-02-08T07:02:32;24.73;;;15.85;;
14734;SDS011;7458;49.002;8.472;2023-02-08T07:04:58;27.08;;;18.67;;
14734;SDS011;7458;49.002;8.472;2023-02-08T07:07:24;27.08;;;18.05;;
14734;SDS011;7458;49.002;8.472;2023-02-08T07:09:51;25.05;;;18.75;;
14734;SDS011;7458;49.002;8.472;2023-02-08T07:12:16;23.83;;;17.40;;
14734;SDS011;7458;49.002;8.472;2023-02-08T07:14:42;28.38;;;18.17;;
14734;SDS011;7458;49.002;8.472;2023-02-08T07:17:08;29.23;;;20.52;;
14734;SDS011;7458;49.002;8.472;2023-02-08T07:19:35;24.10;;;18.25;;
14734;SDS011;7458;49.002;8.472;2023-02-08T07:22:01;30.98;;;18.92;;
14734;SDS011;7458;49.002;8.472;2023-02-08T07:24:34;30.70;;;23.50;;
14734;SDS011;7458;49.002;8.472;2023-02-08T07:27:03;25.45;;;20.70;;
14734;SDS011;7458;49.002;8.472;2023-02-08T07:29:31;30.73;;;21.02;;
14734;SDS011;7458;49.002;8.472;2023-02-08T07:31:59;26.40;;;18.70;;
14734;SDS011;7458;49.002;8.472;2023-02-08T07:34:31;26.88;;;20.10;;
14734;SDS011;7458;49.002;8.472;2023-02-08T07:37:00;26.73;;;18.88;;
14734;SDS011;7458;49.002;8.472;2023-02-08T07:39:26;29.15;;;20.42;;
14734;SDS011;7458;49.002;8.472;2023-02-08T07:41:52;22.95;;;18.17;;
14734;SDS011;7458;49.002;8.472;2023-02-08T07:44:18;25.90;;;19.27;;
14734;SDS011;7458;49.002;8.472;2023-02-08T07:46:44;27.50;;;20.20;;
14734;SDS011;7458;49.002;8.472;2023-02-08T07:49:09;26.35;;;18.77;;
14734;SDS011;7458;49.002;8.472;2023-02-08T07:51:35;31.50;;;21.08;;
14734;SDS011;7458;49.002;8.472;2023-02-08T07:54:01;25.20;;;21.70;;
14734;SDS011;7458;49.002;8.472;2023-02-08T07:56:27;28.20;;;18.92;;
14734;SDS011;7458;49.002;8.472;2023-02-08T07:58:53;27.95;;;18.15;;
14734;SDS011;7458;49.002;8.472;2023-02-08T08:01:19;25.50;;;18.17;;
14734;SDS011;7458;49.002;8.472;2023-02-08T08:03:45;27.58;;;17.35;;
14734;SDS011;7458;49.002;8.472;2023-02-08T08:06:11;26.33;;;19.15;;
14734;SDS011;7458;49.002;8.472;2023-02-08T08:08:37;26.08;;;18.48;;
14734;SDS011;7458;49.002;8.472;2023-02-08T08:11:03;27.17;;;16.77;;
14734;SDS011;7458;49.002;8.472;2023-02-08T08:13:30;20.45;;;16.27;;
14734;SDS011;7458;49.002;8.472;2023-02-08T08:15:56;30.33;;;17.45;;
14734;SDS011;7458;49.002;8.472;2023-02-08T08:18:22;24.10;;;19.10;;
14734;SDS011;7458;49.002;8.472;2023-02-08T08:20:48;25.70;;;18.42;;
14734;SDS011;7458;49.002;8.472;2023-02-08T08:23:13;28.13;;;17.80;;
14734;SDS011;7458;49.002;8.472;2023-02-08T08:25:40;23.08;;;16.27;;
14734;SDS011;7458;49.002;8.472;2023-02-08T08:28:06;21.05;;;15.98;;
14734;SDS011;7458;49.002;8.472;2023-02-08T08:30:32;24.45;;;14.93;;
14734;SDS011;7458;49.002;8.472;2023-02-08T08:32:58;18.67;;;15.30;;
14734;SDS011;7458;49.002;8.472;2023-02-08T08:35:24;25.65;;;17.27;;
14734;SDS011;7458;49.002;8.472;2023-02-08T08:37:50;23.45;;;17.92;;
14734;SDS011;7458;49.002;8.472;2023-02-08T08:40:15;28.02;;;19.77;;
14734;SDS011;7458;49.002;8.472;2023-02-08T08:42:41;29.75;;;17.23;;
14734;SDS011;7458;49.002;8.472;2023-02-08T08:45:07;20.38;;;18.30;;
14734;SDS011;7458;49.002;8.472;2023-02-08T08:47:34;25.63;;;17.77;;
14734;SDS011;7458;49.002;8.472;2023-02-08T08:49:59;19.20;;;17.23;;
14734;SDS011;7458;49.002;8.472;2023-02-08T08:52:25;24.42;;;18.58;;
14734;SDS011;7458;49.002;8.472;2023-02-08T08:54:52;39.40;;;23.75;;
14734;SDS011;7458;49.002;8.472;2023-02-08T08:57:18;20.50;;;17.08;;
14734;SDS011;7458;49.002;8.472;2023-02-08T08:59:43;28.33;;;16.08;;
14734;SDS011;7458;49.002;8.472;2023-02-08T09:02:12;22.80;;;17.92;;
14734;SDS011;7458;49.002;8.472;2023-02-08T09:04:39;29.48;;;17.60;;
14734;SDS011;7458;49.002;8.472;2023-02-08T09:07:05;23.63;;;17.42;;
14734;SDS011;7458;49.002;8.472;2023-02-08T09:09:32;20.48;;;15.25;;
14734;SDS011;7458;49.002;8.472;2023-02-08T09:11:59;18.30;;;14.30;;
14734;SDS011;7458;49.002;8.472;2023-02-08T09:14:26;26.98;;;16.17;;
14734;SDS011;7458;49.002;8.472;2023-02-08T09:16:52;23.00;;;15.55;;
14734;SDS011;7458;49.002;8.472;2023-02-08T09:19:17;22.83;;;15.90;;
14734;SDS011;7458;49.002;8.472;2023-02-08T09:21:43;18.30;;;15.80;;
14734;SDS011;7458;49.002;8.472;2023-02-08T09:24:12;25.40;;;14.68;;
14734;SDS011;7458;49.002;8.472;2023-02-08T09:26:37;20.30;;;15.38;;
14734;SDS011;7458;49.002;8.472;2023-02-08T09:29:09;26.45;;;15.63;;
14734;SDS011;7458;49.002;8.472;2023-02-08T09:31:39;21.65;;;14.73;;
14734;SDS011;7458;49.002;8.472;2023-02-08T09:34:05;19.45;;;14.77;;
14734;SDS011;7458;49.002;8.472;2023-02-08T09:36:33;18.80;;;15.88;;
14734;SDS011;7458;49.002;8.472;2023-02-08T09:39:06;26.33;;;15.93;;
14734;SDS011;7458;49.002;8.472;2023-02-08T09:41:46;19.40;;;13.32;;
14734;SDS011;7458;49.002;8.472;2023-02-08T09:47:41;28.50;;;15.18;;
14734;SDS011;7458;49.002;8.472;2023-02-08T09:50:17;20.60;;;16.80;;
14734;SDS011;7458;49.002;8.472;2023-02-08T09:56:06;20.23;;;15.60;;
14734;SDS011;7458;49.002;8.472;2023-02-08T09:58:38;22.70;;;15.88;;
14734;SDS011;7458;49.002;8.472;2023-02-08T10:01:15;22.05;;;14.27;;
14734;SDS011;7458;49.002;8.472;2023-02-08T10:03:52;19.13;;;12.65;;
14734;SDS011;7458;49.002;8.472;2023-02-08T10:06:32;18.55;;;15.30;;
14734;SDS011;7458;49.002;8.472;2023-02-08T10:09:00;20.48;;;16.08;;
14734;SDS011;7458;49.002;8.472;2023-02-08T10:11:41;22.92;;;16.13;;
14734;SDS011;7458;49.002;8.472;2023-02-08T10:14:34;18.08;;;14.68;;
14734;SDS011;7458;49.002;8.472;2023-02-08T10:34:02;16.35;;;13.40;;
14734;SDS011;7458;49.002;8.472;2023-02-08T10:36:44;14.82;;;12.55;;
14734;SDS011;7458;49.002;8.472;2023-02-08T10:39:23;16.73;;;12.13;;
14734;SDS011;7458;49.002;8.472;2023-02-08T10:41:56;16.48;;;13.20;;
14734;SDS011;7458;49.002;8.472;2023-02-08T10:47:48;16.08;;;13.13;;
14734;SDS011;7458;49.002;8.472;2023-02-08T10:50:24;26.95;;;13.95;;
14734;SDS011;7458;49.002;8.472;2023-02-08T10:52:59;19.48;;;13.55;;
14734;SDS011;7458;49.002;8.472;2023-02-08T10:55:25;17.83;;;14.30;;
14734;SDS011;7458;49.002;8.472;2023-02-08T10:57:51;21.45;;;12.00;;
14734;SDS011;7458;49.002;8.472;2023-02-08T11:00:24;19.08;;;14.10;;
14734;SDS011;7458;49.002;8.472;2023-02-08T11:02:55;19.73;;;12.73;;
14734;SDS011;7458;49.002;8.472;2023-02-08T11:05:34;16.05;;;12.73;;
14734;SDS011;7458;49.002;8.472;2023-02-08T11:08:08;16.20;;;12.95;;
14734;SDS011;7458;49.002;8.472;2023-02-08T11:10:44;21.90;;;14.63;;
14734;SDS011;7458;49.002;8.472;2023-02-08T11:13:21;17.73;;;12.77;;
14734;SDS011;7458;49.002;8.472;2023-02-08T11:15:56;19.70;;;14.35;;
14734;SDS011;7458;49.002;8.472;2023-02-08T11:18:26;15.10;;;13.50;;
14734;SDS011;7458;49.002;8.472;2023-02-08T11:21:01;15.57;;;13.50;;
14734;SDS011;7458;49.002;8.472;2023-02-08T11:23:32;17.67;;;14.63;;
14734;SDS011;7458;49.002;8.472;2023-02-08T11:26:13;18.00;;;14.48;;
14734;SDS011;7458;49.002;8.472;2023-02-08T11:32:02;17.48;;;13.60;;
14734;SDS011;7458;49.002;8.472;2023-02-08T11:34:44;17.02;;;13.27;;
14734;SDS011;7458;49.002;8.472;2023-02-08T11:37:18;18.20;;;13.07;;
14734;SDS011;7458;49.002;8.472;2023-02-08T11:39:54;15.20;;;13.35;;
14734;SDS011;7458;49.002;8.472;2023-02-08T11:42:26;18.30;;;15.45;;
14734;SDS011;7458;49.002;8.472;2023-02-08T11:45:04;15.98;;;13.90;;
14734;SDS011;7458;49.002;8.472;2023-02-08T11:47:32;22.15;;;14.32;;
14734;SDS011;7458;49.002;8.472;2023-02-08T11:50:02;19.67;;;13.38;;
14734;SDS011;7458;49.002;8.472;2023-02-08T11:52:33;15.60;;;13.65;;
14734;SDS011;7458;49.002;8.472;2023-02-08T11:55:40;17.33;;;14.05;;
14734;SDS011;7458;49.002;8.472;2023-02-08T12:00:56;17.63;;;13.95;;
14734;SDS011;7458;49.002;8.472;2023-02-08T12:03:36;19.35;;;14.82;;
14734;SDS011;7458;49.002;8.472;2023-02-08T12:15:24;19.63;;;15.00;;
14734;SDS011;7458;49.002;8.472;2023-02-08T12:20:54;25.48;;;13.15;;
14734;SDS011;7458;49.002;8.472;2023-02-08T12:29:34;19.13;;;13.98;;
14734;SDS011;7458;49.002;8.472;2023-02-08T12:36:05;14.68;;;11.38;;
14734;SDS011;7458;49.002;8.472;2023-02-08T12:39:04;14.80;;;11.88;;
14734;SDS011;7458;49.002;8.472;2023-02-08T12:48:00;15.05;;;11.68;;
14734;SDS011;7458;49.002;8.472;2023-02-08T12:53:26;15.73;;;11.20;;
14734;SDS011;7458;49.002;8.472;2023-02-08T12:56:04;15.95;;;12.73;;
14734;SDS011;7458;49.002;8.472;2023-02-08T12:58:50;16.02;;;11.82;;
14734;SDS011;7458;49.002;8.472;2023-02-08T13:01:24;18.52;;;13.27;;
14734;SDS011;7458;49.002;8.472;2023-02-08T13:06:38;20.30;;;13.60;;
14734;SDS011;7458;49.002;8.472;2023-02-08T13:14:37;23.55;;;16.27;;
14734;SDS011;7458;49.002;8.472;2023-02-08T13:17:58;19.30;;;12.95;;
14734;SDS011;7458;49.002;8.472;2023-02-08T13:20:46;21.50;;;13.80;;
14734;SDS011;7458;49.002;8.472;2023-02-08T13:23:21;24.15;;;16.60;;
14734;SDS011;7458;49.002;8.472;2023-02-08T13:25:57;14.98;;;12.20;;
14734;SDS011;7458;49.002;8.472;2023-02-08T13:28:30;22.50;;;14.27;;
14734;SDS011;7458;49.002;8.472;2023-02-08T13:31:03;17.65;;;12.90;;
14734;SDS011;7458;49.002;8.472;2023-02-08T13:36:19;18.65;;;14.82;;
14734;SDS011;7458;49.002;8.472;2023-02-08T13:41:56;16.88;;;12.82;;
14734;SDS011;7458;49.002;8.472;2023-02-08T13:44:28;25.65;;;12.57;;
14734;SDS011;7458;49.002;8.472;2023-02-08T13:47:03;18.33;;;13.00;;
14734;SDS011;7458;49.002;8.472;2023-02-08T13:49:40;16.45;;;12.10;;
14734;SDS011;7458;49.002;8.472;2023-02-08T13:57:56;16.70;;;11.32;;
14734;SDS011;7458;49.002;8.472;2023-02-08T14:03:22;19.13;;;13.43;;
14734;SDS011;7458;49.002;8.472;2023-02-08T14:06:07;14.88;;;11.70;;
14734;SDS011;7458;49.002;8.472;2023-02-08T14:14:19;16.92;;;11.98;;
14734;SDS011;7458;49.002;8.472;2023-02-08T14:19:29;17.40;;;12.60;;
14734;SDS011;7458;49.002;8.472;2023-02-08T14:22:12;16.85;;;12.02;;
14734;SDS011;7458;49.002;8.472;2023-02-08T14:24:43;14.98;;;11.23;;
14734;SDS011;7458;49.002;8.472;2023-02-08T14:27:26;15.27;;;10.43;;
14734;SDS011;7458;49.002;8.472;2023-02-08T14:30:07;13.27;;;10.07;;
14734;SDS011;7458;49.002;8.472;2023-02-08T14:32:47;16.73;;;11.45;;
14734;SDS011;7458;49.002;8.472;2023-02-08T14:35:18;12.85;;;10.32;;
14734;SDS011;7458;49.002;8.472;2023-02-08T14:37:50;13.68;;;10.57;;
14734;SDS011;7458;49.002;8.472;2023-02-08T14:40:48;15.45;;;11.20;;
14734;SDS011;7458;49.002;8.472;2023-02-08T14:49:14;11.75;;;9.35;;
14734;SDS011;7458;49.002;8.472;2023-02-08T14:57:41;19.10;;;10.98;;
14734;SDS011;7458;49.002;8.472;2023-02-08T15:00:02;12.63;;;9.55;;
14734;SDS011;7458;49.002;8.472;2023-02-08T15:02:45;13.57;;;10.13;;
14734;SDS011;7458;49.002;8.472;2023-02-08T15:07:59;21.40;;;10.70;;
14734;SDS011;7458;49.002;8.472;2023-02-08T15:10:27;11.30;;;8.75;;
14734;SDS011;7458;49.002;8.472;2023-02-08T15:12:57;11.68;;;8.20;;
14734;SDS011;7458;49.002;8.472;2023-02-08T15:15:31;14.05;;;9.15;;
14734;SDS011;7458;49.002;8.472;2023-02-08T15:18:03;17.23;;;8.48;;
14734;SDS011;7458;49.002;8.472;2023-02-08T15:20:39;10.63;;;8.68;;
14734;SDS011;7458;49.002;8.472;2023-02-08T15:23:20;15.00;;;10.00;;
14734;SDS011;7458;49.002;8.472;2023-02-08T15:26:21;13.23;;;9.50;;
14734;SDS011;7458;49.002;8.472;2023-02-08T15:28:47;14.77;;;11.10;;
14734;SDS011;7458;49.002;8.472;2023-02-08T15:31:13;16.67;;;10.50;;
14734;SDS011;7458;49.002;8.472;2023-02-08T15:33:44;15.02;;;8.85;;
14734;SDS011;7458;49.002;8.472;2023-02-08T15:36:15;13.68;;;9.38;;
14734;SDS011;7458;49.002;8.472;2023-02-08T15:39:07;15.63;;;9.63;;
14734;SDS011;7458;49.002;8.472;2023-02-08T15:41:54;14.20;;;9.77;;
14734;SDS011;7458;49.002;8.472;2023-02-08T15:44:30;17.80;;;10.88;;
14734;SDS011;7458;49.002;8.472;2023-02-08T15:46:59;12.13;;;9.57;;
14734;SDS011;7458;49.002;8.472;2023-02-08T15:49:38;14.52;;;9.93;;
14734;SDS011;7458;49.002;8.472;2023-02-08T15:52:08;14.38;;;9.07;;
14734;SDS011;7458;49.002;8.472;2023-02-08T15:54:42;12.13;;;8.60;;
14734;SDS011;7458;49.002;8.472;2023-02-08T16:00:15;23.25;;;14.25;;
14734;SDS011;7458;49.002;8.472;2023-02-08T16:02:49;15.90;;;8.82;;
14734;SDS011;7458;49.002;8.472;2023-02-08T16:05:27;11.48;;;7.95;;
14734;SDS011;7458;49.002;8.472;2023-02-08T16:07:56;10.45;;;7.50;;
14734;SDS011;7458;49.002;8.472;2023-02-08T16:10:34;10.55;;;6.55;;
14734;SDS011;7458;49.002;8.472;2023-02-08T16:15:53;14.25;;;9.52;;
14734;SDS011;7458;49.002;8.472;2023-02-08T16:18:31;15.43;;;9.55;;
14734;SDS011;7458;49.002;8.472;2023-02-08T16:23:52;13.25;;;9.88;;
14734;SDS011;7458;49.002;8.472;2023-02-08T16:26:25;13.90;;;9.02;;
14734;SDS011;7458;49.002;8.472;2023-02-08T16:28:57;13.60;;;9.55;;
14734;SDS011;7458;49.002;8.472;2023-02-08T16:31:26;11.98;;;8.45;;
14734;SDS011;7458;49.002;8.472;2023-02-08T16:33:59;14.20;;;8.95;;
14734;SDS011;7458;49.002;8.472;2023-02-08T16:36:48;15.50;;;9.77;;
14734;SDS011;7458;49.002;8.472;2023-02-08T16:46:58;15.30;;;10.95;;
14734;SDS011;7458;49.002;8.472;2023-02-08T16:49:26;12.85;;;8.90;;
14734;SDS011;7458;49.002;8.472;2023-02-08T16:51:56;14.15;;;9.52;;
14734;SDS011;7458;49.002;8.472;2023-02-08T16:54:22;12.80;;;11.13;;
14734;SDS011;7458;49.002;8.472;2023-02-08T16:56:50;14.50;;;11.75;;
14734;SDS011;7458;49.002;8.472;2023-02-08T16:59:24;19.92;;;10.80;;
14734;SDS011;7458;49.002;8.472;2023-02-08T17:01:51;16.35;;;11.57;;
14734;SDS011;7458;49.002;8.472;2023-02-08T17:04:20;13.68;;;10.60;;
14734;SDS011;7458;49.002;8.472;2023-02-08T17:06:47;13.45;;;9.80;;
14734;SDS011;7458;49.002;8.472;2023-02-08T17:09:12;11.70;;;9.80;;
14734;SDS011;7458;49.002;8.472;2023-02-08T17:11:39;13.52;;;9.25;;
14734;SDS011;7458;49.002;8.472;2023-02-08T17:14:05;14.88;;;10.45;;
14734;SDS011;7458;49.002;8.472;2023-02-08T17:16:34;16.70;;;12.80;;
14734;SDS011;7458;49.002;8.472;2023-02-08T17:19:03;19.23;;;11.52;;
14734;SDS011;7458;49.002;8.472;2023-02-08T17:21:30;17.70;;;11.18;;
14734;SDS011;7458;49.002;8.472;2023-02-08T17:23:56;23.30;;;15.80;;
14734;SDS011;7458;49.002;8.472;2023-02-08T17:26:31;23.63;;;17.00;;
14734;SDS011;7458;49.002;8.472;2023-02-08T17:29:04;13.60;;;11.18;;
14734;SDS011;7458;49.002;8.472;2023-02-08T17:31:31;16.55;;;11.23;;
14734;SDS011;7458;49.002;8.472;2023-02-08T17:33:56;16.40;;;12.50;;
14734;SDS011;7458;49.002;8.472;2023-02-08T17:36:28;13.98;;;10.52;;
14734;SDS011;7458;49.002;8.472;2023-02-08T17:39:00;14.75;;;9.75;;
14734;SDS011;7458;49.002;8.472;2023-02-08T17:41:26;20.23;;;12.75;;
14734;SDS011;7458;49.002;8.472;2023-02-08T17:43:52;18.05;;;11.63;;
14734;SDS011;7458;49.002;8.472;2023-02-08T17:46:24;13.77;;;10.93;;